Time;durP1;ratioP1;P1;durP2;ratioP2;P2;SDS_P1;SDS_P2;PMS_P1;PMS_P2;Temp;Humidity;BMP_temperature;BMP_pressure;BME280_temperature;BME280_humidity;BME280_pressure;Samples;Min_cycle;Max_cycle;Signal;HPM_P1;HPM_P2
2022/04/19 00:01:20;;;;;;;2.27;1.90;;;7.30;99.90;;;;;;5095272;28;20327;-47
2022/04/19 00:03:45;;;;;;;2.30;2.07;;;7.20;99.90;;;;;;5094683;28;20163;-47
2022/04/19 00:06:11;;;;;;;2.10;1.90;;;7.20;99.90;;;;;;5095017;28;20191;-49
2022/04/19 00:08:37;;;;;;;2.20;2.00;;;7.20;99.90;;;;;;5094165;28;20269;-46
2022/04/19 00:11:04;;;;;;;2.50;1.93;;;7.10;99.90;;;;;;5094039;28;20191;-46
2022/04/19 00:13:30;;;;;;;2.90;1.80;;;7.10;99.90;;;;;;5094222;28;20176;-47
2022/04/19 00:15:56;;;;;;;3.63;1.90;;;7.00;99.90;;;;;;5093692;28;20180;-45
2022/04/19 00:18:22;;;;;;;3.40;2.20;;;6.90;99.90;;;;;;5076035;28;20205;-47
2022/04/19 00:20:49;;;;;;;4.53;2.07;;;6.90;99.90;;;;;;5094176;28;20202;-45
2022/04/19 00:23:16;;;;;;;4.10;3.70;;;6.80;99.90;;;;;;5094047;28;20182;-45
2022/04/19 00:25:47;;;;;;;6.10;4.53;;;6.80;99.90;;;;;;5093711;28;20171;-45
2022/04/19 00:28:13;;;;;;;6.27;3.20;;;6.90;99.90;;;;;;5094072;28;20189;-46
2022/04/19 00:30:39;;;;;;;5.23;3.00;;;6.80;99.90;;;;;;5093873;28;20205;-46
2022/04/19 00:33:07;;;;;;;4.23;3.07;;;6.80;99.90;;;;;;5093674;28;20227;-45
2022/04/19 00:35:33;;;;;;;5.07;2.67;;;6.80;99.90;;;;;;5093593;28;20662;-46
2022/04/19 00:37:59;;;;;;;4.53;3.60;;;6.70;99.90;;;;;;5093753;28;20205;-45
2022/04/19 00:40:25;;;;;;;8.83;2.70;;;6.70;99.90;;;;;;5093603;28;20552;-46
2022/04/19 00:42:54;;;;;;;4.33;2.30;;;6.60;99.90;;;;;;5093784;28;20182;-46
2022/04/19 00:45:22;;;;;;;4.10;2.40;;;6.60;99.90;;;;;;5093798;28;20201;-46
2022/04/19 00:47:48;;;;;;;2.73;2.20;;;6.50;99.90;;;;;;5093408;28;20199;-47
2022/04/19 00:50:15;;;;;;;2.97;2.23;;;6.50;99.90;;;;;;5093351;28;20199;-46
2022/04/19 00:52:46;;;;;;;6.07;2.80;;;6.40;99.90;;;;;;5093528;28;20185;-45
2022/04/19 00:55:12;;;;;;;3.40;2.50;;;6.40;99.90;;;;;;5059766;28;20157;-46
2022/04/19 00:57:39;;;;;;;9.50;4.50;;;6.30;99.90;;;;;;5093270;28;20190;-46
2022/04/19 01:00:09;;;;;;;9.90;5.07;;;6.30;99.90;;;;;;5091987;28;20235;-46
2022/04/19 01:02:36;;;;;;;5.40;4.27;;;6.30;99.90;;;;;;5093363;28;20254;-46
2022/04/19 01:05:02;;;;;;;6.97;4.17;;;6.30;99.90;;;;;;5093587;28;20182;-45
2022/04/19 01:07:28;;;;;;;2.50;2.00;;;6.30;99.90;;;;;;5092961;28;20219;-46
2022/04/19 01:09:54;;;;;;;5.33;2.07;;;6.30;99.90;;;;;;5093176;28;20194;-46
2022/04/19 01:15:10;;;;;;;2.47;1.67;;;6.10;99.90;;;;;;5093231;28;20536;-44
2022/04/19 01:17:41;;;;;;;5.17;1.97;;;6.00;99.90;;;;;;5093210;28;20227;-46
2022/04/19 01:20:10;;;;;;;3.33;2.23;;;5.90;99.90;;;;;;5093453;28;20167;-46
2022/04/19 01:22:40;;;;;;;3.70;2.03;;;5.90;99.90;;;;;;5093099;28;20179;-45
2022/04/19 01:25:07;;;;;;;3.10;2.10;;;5.80;99.90;;;;;;5093127;28;20175;-46
2022/04/19 01:27:33;;;;;;;2.40;1.90;;;5.80;99.90;;;;;;5095302;28;20648;-45
2022/04/19 01:30:03;;;;;;;2.23;2.03;;;5.70;99.90;;;;;;5097051;28;20687;-46
2022/04/19 01:32:28;;;;;;;4.33;2.17;;;5.70;99.90;;;;;;5097106;28;20648;-46
2022/04/19 01:35:06;;;;;;;2.30;2.00;;;5.60;99.90;;;;;;5097018;28;20163;-47
2022/04/19 01:37:36;;;;;;;3.67;2.10;;;5.50;99.90;;;;;;5096878;28;20702;-46
2022/04/19 01:40:18;;;;;;;2.13;1.90;;;5.40;99.90;;;;;;5097107;28;20232;-45
2022/04/19 01:42:52;;;;;;;2.90;2.03;;;5.40;99.90;;;;;;5097188;28;20253;-46
2022/04/19 01:45:23;;;;;;;3.77;2.20;;;5.30;99.90;;;;;;5096747;28;20639;-45
2022/04/19 01:47:49;;;;;;;4.57;2.10;;;5.30;99.90;;;;;;5096946;28;20205;-45
2022/04/19 01:50:16;;;;;;;2.90;2.57;;;5.30;99.90;;;;;;5096664;28;20279;-46
2022/04/19 01:52:44;;;;;;;3.60;2.30;;;5.20;99.90;;;;;;5096732;28;20524;-46
2022/04/19 01:55:17;;;;;;;4.47;2.40;;;5.20;99.90;;;;;;5096620;28;20176;-47
2022/04/19 01:57:44;;;;;;;3.90;2.47;;;5.20;99.90;;;;;;5096885;28;20194;-45
2022/04/19 02:00:11;;;;;;;4.93;2.83;;;5.10;99.90;;;;;;5096633;28;20183;-46
2022/04/19 02:02:38;;;;;;;2.90;2.37;;;5.10;99.90;;;;;;5096778;28;20178;-47
2022/04/19 02:05:05;;;;;;;3.20;2.30;;;5.10;99.90;;;;;;5096680;28;20276;-46
2022/04/19 02:07:34;;;;;;;4.17;2.83;;;5.10;99.90;;;;;;5096178;28;20297;-45
2022/04/19 02:10:00;;;;;;;3.43;2.50;;;5.00;99.90;;;;;;5096315;28;20194;-47
2022/04/19 02:12:26;;;;;;;4.77;2.60;;;5.00;99.90;;;;;;5096324;28;20243;-46
2022/04/19 02:14:51;;;;;;;3.33;2.13;;;5.00;99.90;;;;;;5096437;28;20182;-46
2022/04/19 02:17:23;;;;;;;3.17;2.10;;;5.00;99.90;;;;;;5096254;28;20538;-45
2022/04/19 02:19:58;;;;;;;3.13;1.80;;;4.90;99.90;;;;;;5096520;28;20211;-45
2022/04/19 02:22:24;;;;;;;3.33;2.07;;;4.90;99.90;;;;;;5096407;28;20217;-46
2022/04/19 02:24:49;;;;;;;3.33;2.30;;;4.80;99.90;;;;;;5096077;28;20185;-46
2022/04/19 02:27:15;;;;;;;3.87;2.30;;;4.80;99.90;;;;;;5096218;28;20227;-46
2022/04/19 02:29:41;;;;;;;3.47;2.30;;;4.70;99.90;;;;;;5095930;28;20681;-45
2022/04/19 02:32:06;;;;;;;3.40;2.70;;;4.70;99.90;;;;;;5077843;28;20214;-45
2022/04/19 02:34:33;;;;;;;3.13;2.47;;;4.70;99.90;;;;;;5095938;28;20186;-47
2022/04/19 02:36:58;;;;;;;2.87;2.50;;;4.70;99.90;;;;;;5096017;28;20198;-45
2022/04/19 02:39:24;;;;;;;5.03;2.97;;;4.60;99.90;;;;;;5095382;28;20192;-46
2022/04/19 02:41:52;;;;;;;4.13;2.50;;;4.60;99.90;;;;;;5095794;28;20672;-45
2022/04/19 02:44:20;;;;;;;2.83;2.40;;;4.60;99.90;;;;;;5095977;28;20247;-45
2022/04/19 02:46:46;;;;;;;2.30;2.03;;;4.60;99.90;;;;;;5095602;28;20208;-47
2022/04/19 02:49:11;;;;;;;4.03;2.10;;;4.60;99.90;;;;;;5095783;28;20175;-45
2022/04/19 02:51:37;;;;;;;2.87;2.10;;;4.60;99.90;;;;;;5095833;28;20190;-44
2022/04/19 02:54:03;;;;;;;3.07;2.13;;;5.40;99.90;;;;;;5095530;28;20585;-44
2022/04/19 02:56:29;;;;;;;2.50;2.03;;;4.50;99.90;;;;;;5095626;28;20204;-46
2022/04/19 02:58:54;;;;;;;2.57;2.20;;;4.40;99.90;;;;;;5095445;28;20227;-44
2022/04/19 03:01:20;;;;;;;2.53;2.10;;;4.40;99.90;;;;;;5095596;28;20187;-45
2022/04/19 03:03:48;;;;;;;2.60;2.33;;;4.30;99.90;;;;;;5095546;28;20251;-44
2022/04/19 03:06:14;;;;;;;4.03;2.13;;;4.30;99.90;;;;;;5095448;28;20295;-44
2022/04/19 03:08:40;;;;;;;3.30;2.27;;;4.30;99.90;;;;;;5095180;28;20217;-45
2022/04/19 03:11:06;;;;;;;2.40;2.00;;;4.20;99.90;;;;;;5095062;28;20286;-46
2022/04/19 03:13:32;;;;;;;4.03;2.43;;;4.20;99.90;;;;;;5095160;28;20209;-46
2022/04/19 03:15:58;;;;;;;2.63;2.10;;;4.10;99.90;;;;;;5095267;28;20246;-45
2022/04/19 03:18:24;;;;;;;4.20;2.40;;;4.10;99.90;;;;;;5095269;28;20191;-45
2022/04/19 03:20:50;;;;;;;3.80;2.77;;;4.10;99.90;;;;;;5094973;28;20182;-45
2022/04/19 03:28:48;;;;;;;2.57;2.37;;;3.90;99.90;;;;;;5095176;28;20536;-45
2022/04/19 03:31:14;;;;;;;4.43;2.23;;;3.90;99.90;;;;;;5094745;28;20205;-46
2022/04/19 03:33:40;;;;;;;5.40;2.93;;;3.90;99.90;;;;;;5095030;28;20166;-46
2022/04/19 03:36:08;;;;;;;2.57;2.00;;;3.80;99.90;;;;;;5095314;28;20200;-45
2022/04/19 03:38:34;;;;;;;3.80;2.37;;;3.80;99.90;;;;;;5094838;28;20179;-46
2022/04/19 03:41:01;;;;;;;3.33;2.23;;;3.80;99.90;;;;;;5094602;28;20227;-47
2022/04/19 03:43:26;;;;;;;2.70;2.00;;;3.80;99.90;;;;;;5094543;28;20192;-48
2022/04/19 03:45:52;;;;;;;3.27;2.70;;;3.70;99.90;;;;;;5094707;28;20184;-48
2022/04/19 03:48:17;;;;;;;3.87;2.80;;;3.70;99.90;;;;;;5094462;28;20191;-47
2022/04/19 03:50:44;;;;;;;4.80;2.73;;;3.70;99.90;;;;;;5093719;28;20246;-46
2022/04/19 03:53:10;;;;;;;6.40;3.03;;;3.60;99.90;;;;;;5076540;28;20182;-48
2022/04/19 03:55:35;;;;;;;4.73;3.10;;;3.60;99.90;;;;;;5094550;28;20221;-47
2022/04/19 03:58:03;;;;;;;4.60;3.10;;;3.60;99.90;;;;;;5094464;28;20196;-47
2022/04/19 04:00:28;;;;;;;4.17;3.30;;;3.60;99.90;;;;;;5094671;28;20185;-46
2022/04/19 04:02:54;;;;;;;5.57;3.67;;;3.60;99.90;;;;;;5095361;28;20187;-47
2022/04/19 04:05:24;;;;;;;6.60;4.23;;;3.50;99.90;;;;;;5094500;28;20203;-46
2022/04/19 04:07:55;;;;;;;5.90;4.47;;;3.50;99.90;;;;;;5094777;28;20259;-47
2022/04/19 04:10:21;;;;;;;9.20;6.20;;;3.50;99.90;;;;;;5094419;28;20190;-47
2022/04/19 04:12:46;;;;;;;9.37;6.03;;;3.50;99.90;;;;;;5094089;28;20171;-47
2022/04/19 04:15:12;;;;;;;9.03;6.20;;;3.50;99.90;;;;;;5094675;28;20525;-46
2022/04/19 04:17:37;;;;;;;7.93;5.53;;;3.40;99.90;;;;;;5093924;28;20233;-46
2022/04/19 04:20:03;;;;;;;7.40;4.37;;;3.40;99.90;;;;;;5093865;28;20185;-47
2022/04/19 04:22:29;;;;;;;7.17;3.57;;;3.40;99.90;;;;;;5093831;28;20202;-47
2022/04/19 04:24:55;;;;;;;4.80;3.10;;;3.40;99.90;;;;;;5093901;28;20655;-47
2022/04/19 04:27:20;;;;;;;5.07;3.67;;;3.40;99.90;;;;;;5093839;28;20254;-47
2022/04/19 04:29:46;;;;;;;8.10;3.27;;;3.40;99.90;;;;;;5093725;28;20194;-46
2022/04/19 04:32:12;;;;;;;5.13;3.80;;;3.50;99.90;;;;;;5093957;28;20183;-48
2022/04/19 04:34:37;;;;;;;6.70;3.80;;;3.50;99.90;;;;;;5093968;28;20252;-46
2022/04/19 04:37:03;;;;;;;5.10;4.00;;;3.50;99.90;;;;;;5093821;28;20207;-47
2022/04/19 04:39:29;;;;;;;6.70;3.70;;;3.60;99.90;;;;;;5093884;28;20183;-47
2022/04/19 04:41:54;;;;;;;6.73;3.40;;;3.60;99.90;;;;;;5093599;28;20239;-46
2022/04/19 04:44:20;;;;;;;6.93;3.57;;;3.60;99.90;;;;;;5093613;28;20179;-48
2022/04/19 04:49:35;;;;;;;5.07;3.70;;;3.60;99.90;;;;;;5093537;28;20567;-47
2022/04/19 04:52:05;;;;;;;4.93;3.90;;;3.60;99.90;;;;;;5093760;28;20189;-47
2022/04/19 04:54:31;;;;;;;7.70;3.90;;;3.60;99.90;;;;;;5093381;28;20182;-45
2022/04/19 04:56:56;;;;;;;5.00;3.47;;;3.70;99.90;;;;;;5093398;28;20311;-48
2022/04/19 04:59:22;;;;;;;6.20;3.43;;;3.70;99.90;;;;;;5093370;28;20261;-46
2022/04/19 05:01:48;;;;;;;5.20;2.83;;;3.70;99.90;;;;;;5093232;28;20178;-45
2022/04/19 05:04:13;;;;;;;3.87;3.30;;;3.70;99.90;;;;;;5093346;28;20190;-46
2022/04/19 05:06:40;;;;;;;5.57;3.73;;;3.70;99.90;;;;;;5093124;28;20202;-47
2022/04/19 05:09:05;;;;;;;8.93;3.47;;;3.60;99.90;;;;;;5093477;28;20178;-47
2022/04/19 05:11:31;;;;;;;7.73;2.80;;;3.70;99.90;;;;;;5093308;28;20540;-47
2022/04/19 05:13:57;;;;;;;7.37;3.37;;;3.70;99.90;;;;;;5093601;28;20228;-47
2022/04/19 05:16:23;;;;;;;9.20;4.97;;;3.70;99.90;;;;;;5093396;28;20202;-47
2022/04/19 05:18:48;;;;;;;5.87;3.73;;;3.70;99.90;;;;;;5093200;28;20179;-47
2022/04/19 05:21:14;;;;;;;8.10;4.13;;;3.80;99.90;;;;;;5093201;28;20187;-47
2022/04/19 05:23:39;;;;;;;8.57;4.70;;;3.80;99.90;;;;;;5093627;28;20648;-47
2022/04/19 05:26:05;;;;;;;9.57;5.17;;;4.00;99.90;;;;;;5093133;28;20202;-48
2022/04/19 05:28:31;;;;;;;11.70;5.70;;;4.10;99.90;;;;;;5093193;28;20186;-47
2022/04/19 05:30:56;;;;;;;8.67;4.77;;;4.20;99.90;;;;;;5093015;28;20194;-46
2022/04/19 05:33:22;;;;;;;10.60;5.33;;;4.30;99.90;;;;;;5093094;28;20605;-48
2022/04/19 05:35:48;;;;;;;9.00;5.23;;;4.40;99.90;;;;;;5093008;28;20578;-47
2022/04/19 05:38:14;;;;;;;12.17;5.60;;;4.60;99.90;;;;;;5093095;28;20236;-48
2022/04/19 05:40:40;;;;;;;16.33;6.47;;;4.70;99.90;;;;;;5091775;28;20232;-47
2022/04/19 05:43:06;;;;;;;10.63;5.83;;;4.90;99.90;;;;;;5092944;28;20179;-45
2022/04/19 05:45:32;;;;;;;16.10;6.47;;;5.10;99.90;;;;;;5091702;28;20277;-47
2022/04/19 05:47:57;;;;;;;17.60;6.17;;;5.30;99.90;;;;;;5093067;28;20211;-46
2022/04/19 05:50:23;;;;;;;10.80;5.53;;;5.40;99.90;;;;;;5092673;28;20556;-47
2022/04/19 05:52:48;;;;;;;13.37;6.20;;;5.50;99.90;;;;;;5092895;28;20224;-48
2022/04/19 05:55:14;;;;;;;13.70;5.73;;;5.70;99.90;;;;;;5092884;28;20206;-47
2022/04/19 05:57:40;;;;;;;11.37;5.33;;;6.00;99.90;;;;;;5093085;28;20199;-47
2022/04/19 06:00:06;;;;;;;14.27;5.07;;;6.30;99.90;;;;;;5093163;28;20270;-46
2022/04/19 06:05:16;;;;;;;7.03;5.83;;;6.90;99.90;;;;;;5094680;28;20198;-48
2022/04/19 06:07:46;;;;;;;13.43;5.80;;;7.10;99.90;;;;;;5093136;28;20211;-47
2022/04/19 06:10:14;;;;;;;9.40;5.90;;;7.30;99.90;;;;;;5092687;28;20219;-47
2022/04/19 06:12:40;;;;;;;14.27;6.43;;;7.40;99.90;;;;;;5093657;28;20176;-48
2022/04/19 06:15:06;;;;;;;21.13;6.50;;;7.60;99.90;;;;;;5096735;28;20259;-48
2022/04/19 06:17:35;;;;;;;11.93;6.17;;;7.60;99.90;;;;;;5096241;28;20187;-48
2022/04/19 06:20:02;;;;;;;14.60;6.13;;;7.70;99.90;;;;;;5096242;28;20171;-48
2022/04/19 06:22:27;;;;;;;12.83;6.33;;;7.70;99.90;;;;;;5096320;28;20574;-48
2022/04/19 06:24:55;;;;;;;18.17;6.57;;;7.90;99.90;;;;;;5096223;28;20181;-47
2022/04/19 06:27:21;;;;;;;18.23;6.00;;;8.00;99.90;;;;;;5096252;28;20229;-48
2022/04/19 06:29:47;;;;;;;23.60;6.60;;;8.00;99.90;;;;;;5095949;28;20228;-46
2022/04/19 06:32:13;;;;;;;29.03;7.60;;;8.00;99.90;;;;;;5096276;28;20188;-47
2022/04/19 06:34:41;;;;;;;17.30;6.80;;;8.10;99.90;;;;;;5096075;28;20624;-47
2022/04/19 06:37:07;;;;;;;12.00;6.20;;;8.20;99.90;;;;;;5095956;28;20570;-47
2022/04/19 06:39:33;;;;;;;11.17;6.50;;;8.30;99.90;;;;;;5095801;28;20172;-45
2022/04/19 06:41:58;;;;;;;16.50;6.57;;;8.50;99.90;;;;;;5095873;28;20232;-48
2022/04/19 06:44:24;;;;;;;16.87;6.80;;;8.60;99.90;;;;;;5096054;28;20183;-47
2022/04/19 06:46:50;;;;;;;15.00;7.20;;;8.70;99.90;;;;;;5095937;28;20696;-47
2022/04/19 06:49:17;;;;;;;11.13;6.70;;;8.70;99.90;;;;;;5095860;28;20189;-47
2022/04/19 06:51:42;;;;;;;13.50;6.67;;;8.80;99.90;;;;;;5095616;28;20536;-47
2022/04/19 06:54:09;;;;;;;11.90;6.10;;;9.00;99.90;;;;;;5095829;28;20182;-47
2022/04/19 06:56:35;;;;;;;9.03;5.90;;;9.30;99.90;;;;;;5095422;28;20190;-46
2022/04/19 06:59:01;;;;;;;8.97;5.47;;;9.40;99.90;;;;;;5095721;28;20274;-46
2022/04/19 07:01:27;;;;;;;14.07;6.17;;;9.60;99.90;;;;;;5095469;28;20708;-46
2022/04/19 07:03:53;;;;;;;9.73;6.03;;;9.80;99.90;;;;;;5095590;28;20175;-47
2022/04/19 07:06:19;;;;;;;10.40;6.20;;;10.00;99.90;;;;;;5095430;28;20199;-49
2022/04/19 07:08:45;;;;;;;10.13;5.50;;;10.20;99.90;;;;;;5095174;28;20273;-47
2022/04/19 07:11:15;;;;;;;8.33;5.30;;;10.30;99.90;;;;;;5095162;28;20199;-49
2022/04/19 07:13:41;;;;;;;9.67;6.10;;;10.50;99.90;;;;;;5095510;28;20193;-48
2022/04/19 07:16:07;;;;;;;10.77;6.07;;;10.70;99.90;;;;;;5095059;28;20199;-48
2022/04/19 07:18:32;;;;;;;12.00;5.57;;;10.80;99.90;;;;;;5095304;28;20183;-50
2022/04/19 07:26:38;;;;;;;9.00;6.17;;;11.50;99.90;;;;;;5094658;28;20213;-48
2022/04/19 07:29:22;;;;;;;9.37;5.80;;;11.80;99.90;;;;;;5095100;28;20627;-48
2022/04/19 07:31:49;;;;;;;10.57;5.80;;;12.30;99.90;;;;;;5095146;28;20212;-46
2022/04/19 07:34:14;;;;;;;8.07;4.97;;;12.40;99.90;;;;;;5094898;28;20182;-48
2022/04/19 07:36:41;;;;;;;7.90;5.90;;;12.60;99.90;;;;;;5094693;28;20264;-48
2022/04/19 07:39:07;;;;;;;11.70;6.17;;;12.60;99.90;;;;;;5094997;28;20277;-49
2022/04/19 07:41:40;;;;;;;6.83;5.67;;;12.60;99.90;;;;;;5094884;28;20195;-48
2022/04/19 07:44:08;;;;;;;9.03;5.23;;;12.50;99.90;;;;;;5094891;28;20170;-49
2022/04/19 07:46:35;;;;;;;6.93;4.93;;;12.50;99.90;;;;;;5094726;28;20286;-48
2022/04/19 07:49:02;;;;;;;8.10;4.93;;;12.50;99.90;;;;;;5094656;28;20193;-47
2022/04/19 07:51:28;;;;;;;10.90;4.67;;;12.50;99.90;;;;;;5094958;28;20207;-49
2022/04/19 07:53:54;;;;;;;12.63;5.33;;;12.70;99.90;;;;;;5094703;28;20179;-48
2022/04/19 07:56:20;;;;;;;11.67;5.67;;;12.70;99.90;;;;;;5094618;28;20201;-49
2022/04/19 07:58:47;;;;;;;12.47;4.53;;;12.70;99.90;;;;;;5094375;28;20168;-48
2022/04/19 08:01:14;;;;;;;15.37;5.30;;;12.80;99.90;;;;;;5094523;28;20183;-49
2022/04/19 08:03:40;;;;;;;14.47;6.10;;;13.20;99.90;;;;;;5094449;28;20175;-50
2022/04/19 08:06:05;;;;;;;9.63;5.33;;;13.60;99.90;;;;;;5094390;28;20218;-49
2022/04/19 08:08:31;;;;;;;12.77;5.33;;;13.80;99.90;;;;;;5076256;28;20724;-46
2022/04/19 08:10:57;;;;;;;14.83;5.70;;;13.90;99.90;;;;;;5094316;28;20556;-48
2022/04/19 08:13:23;;;;;;;17.10;5.80;;;13.90;99.90;;;;;;5094088;28;20167;-48
2022/04/19 08:15:49;;;;;;;19.50;5.53;;;14.10;99.90;;;;;;5093933;28;20167;-49
2022/04/19 08:18:15;;;;;;;14.37;5.63;;;14.20;99.90;;;;;;5094020;28;20167;-47
2022/04/19 08:20:42;;;;;;;11.47;5.47;;;14.10;99.90;;;;;;5075829;28;20251;-47
2022/04/19 08:23:08;;;;;;;13.50;6.57;;;14.10;99.90;;;;;;5094190;28;20717;-48
2022/04/19 08:25:34;;;;;;;9.27;5.63;;;14.10;99.90;;;;;;5093836;28;20266;-48
2022/04/19 08:28:00;;;;;;;14.93;5.43;;;14.10;99.90;;;;;;5093848;28;20202;-48
2022/04/19 08:30:26;;;;;;;14.30;6.33;;;14.30;99.90;;;;;;5093767;28;20599;-48
2022/04/19 08:32:51;;;;;;;11.87;5.33;;;14.40;99.90;;;;;;5075736;28;20179;-50
2022/04/19 08:35:18;;;;;;;9.50;5.93;;;14.40;99.90;;;;;;5093639;28;20194;-48
2022/04/19 08:37:43;;;;;;;11.87;5.70;;;14.60;99.90;;;;;;5093740;28;20198;-49
2022/04/19 08:40:11;;;;;;;20.87;7.10;;;14.60;99.90;;;;;;5093611;28;20174;-48
2022/04/19 08:42:39;;;;;;;11.33;5.13;;;14.60;99.90;;;;;;5093877;28;20202;-48
2022/04/19 08:45:07;;;;;;;13.63;5.80;;;14.60;99.90;;;;;;5093846;28;20182;-48
2022/04/19 08:47:37;;;;;;;15.97;5.60;;;14.60;99.90;;;;;;5093487;28;20191;-50
2022/04/19 08:50:05;;;;;;;13.27;6.07;;;14.80;99.90;;;;;;5093452;28;20222;-49
2022/04/19 08:52:33;;;;;;;9.60;5.73;;;14.90;99.90;;;;;;5093430;28;20175;-48
2022/04/19 08:57:43;;;;;;;13.30;6.23;;;15.10;99.90;;;;;;5094138;28;20453;-48
2022/04/19 09:00:09;;;;;;;13.20;6.83;;;15.10;99.90;;;;;;5094479;28;20655;-48
2022/04/19 09:02:37;;;;;;;12.60;6.50;;;15.10;99.90;;;;;;5093393;28;20175;-48
2022/04/19 09:05:26;;;;;;;9.27;6.30;;;15.10;99.90;;;;;;5075365;28;20290;-48
2022/04/19 09:07:53;;;;;;;13.50;6.60;;;15.20;99.90;;;;;;5093298;28;20214;-47
2022/04/19 09:10:27;;;;;;;15.87;7.07;;;15.20;99.90;;;;;;5093452;28;20336;-49
2022/04/19 09:13:00;;;;;;;9.73;6.60;;;15.20;99.90;;;;;;5093863;28;20366;-47
2022/04/19 09:15:39;;;;;;;10.43;6.27;;;15.30;99.90;;;;;;5093237;28;20629;-49
2022/04/19 09:18:11;;;;;;;10.27;6.37;;;15.40;99.90;;;;;;5093517;28;20178;-48
2022/04/19 09:20:38;;;;;;;8.63;6.50;;;15.60;99.90;;;;;;5075118;28;20584;-48
2022/04/19 09:23:09;;;;;;;10.27;6.50;;;15.80;99.90;;;;;;5093378;28;20544;-48
2022/04/19 09:25:36;;;;;;;13.07;7.03;;;15.90;99.90;;;;;;5093423;28;20174;-48
2022/04/19 09:28:05;;;;;;;10.27;7.13;;;16.00;99.90;;;;;;5093333;28;20191;-47
2022/04/19 09:30:34;;;;;;;13.33;7.17;;;16.10;99.50;;;;;;5091736;28;20203;-50
2022/04/19 09:33:00;;;;;;;11.60;7.53;;;16.10;99.90;;;;;;5093292;28;20262;-48
2022/04/19 09:35:53;;;;;;;12.47;7.17;;;16.00;99.10;;;;;;5093077;28;20171;-48
2022/04/19 09:38:34;;;;;;;12.57;7.27;;;15.90;99.90;;;;;;5080233;28;20210;-48
2022/04/19 09:41:00;;;;;;;9.67;6.83;;;16.00;99.60;;;;;;5093342;28;20189;-50
2022/04/19 09:43:25;;;;;;;12.73;6.80;;;16.10;99.90;;;;;;5093263;28;20640;-50
2022/04/19 09:45:59;;;;;;;9.80;6.20;;;16.30;99.90;;;;;;5093442;28;20178;-49
2022/04/19 09:48:26;;;;;;;9.70;6.50;;;16.50;99.40;;;;;;5094974;28;20159;-49
2022/04/19 09:50:57;;;;;;;7.77;6.30;;;16.70;98.60;;;;;;5078479;28;20739;-48
2022/04/19 09:53:28;;;;;;;8.57;6.07;;;16.80;98.10;;;;;;5096727;28;20644;-50
2022/04/19 09:55:56;;;;;;;8.90;5.60;;;16.80;96.90;;;;;;5078467;28;20167;-48
2022/04/19 09:58:22;;;;;;;8.47;6.43;;;16.90;97.40;;;;;;5096887;28;20217;-50
2022/04/19 10:00:49;;;;;;;8.43;6.20;;;17.00;95.90;;;;;;5096941;28;20629;-49
2022/04/19 10:08:46;;;;;;;7.60;5.73;;;17.00;95.50;;;;;;5096433;28;20197;-49
2022/04/19 10:11:13;;;;;;;9.83;5.73;;;17.10;94.60;;;;;;5096558;28;20199;-50
2022/04/19 10:13:39;;;;;;;9.30;6.00;;;17.20;95.20;;;;;;5096285;28;20179;-48
2022/04/19 10:16:12;;;;;;;12.27;6.03;;;17.20;95.00;;;;;;5096245;28;20193;-49
2022/04/19 10:18:44;;;;;;;7.83;5.13;;;17.30;93.30;;;;;;5096575;28;20577;-50
2022/04/19 10:21:14;;;;;;;7.60;4.93;;;17.30;94.20;;;;;;5096128;28;20206;-49
2022/04/19 10:23:42;;;;;;;6.37;5.07;;;17.30;94.60;;;;;;5096099;28;20163;-47
2022/04/19 10:26:19;;;;;;;12.27;5.53;;;17.30;93.80;;;;;;5094830;28;20198;-48
2022/04/19 10:28:47;;;;;;;7.77;5.73;;;17.30;93.40;;;;;;5096208;28;20181;-48
2022/04/19 10:31:24;;;;;;;6.80;5.40;;;17.30;93.30;;;;;;5095792;28;20251;-48
2022/04/19 10:33:52;;;;;;;10.93;4.90;;;17.30;92.50;;;;;;5095833;28;20616;-48
2022/04/19 10:36:22;;;;;;;7.20;4.70;;;17.40;94.30;;;;;;5095798;28;20680;-48
2022/04/19 10:39:13;;;;;;;8.43;5.23;;;17.50;93.70;;;;;;5096080;28;20217;-51
2022/04/19 10:41:56;;;;;;;10.00;5.67;;;17.70;91.90;;;;;;5095699;28;20185;-49
2022/04/19 10:44:28;;;;;;;8.83;5.20;;;17.60;91.70;;;;;;5096246;28;20225;-49
2022/04/19 10:47:13;;;;;;;7.00;5.57;;;17.70;93.60;;;;;;5094399;28;20199;-48
2022/04/19 10:50:01;;;;;;;8.20;4.90;;;17.80;91.70;;;;;;5095586;28;20652;-49
2022/04/19 10:52:36;;;;;;;8.43;4.93;;;17.80;91.90;;;;;;5077950;28;20620;-49
2022/04/19 10:55:17;;;;;;;7.67;5.17;;;17.80;92.00;;;;;;5095681;28;20188;-49
2022/04/19 10:58:26;;;;;;;6.87;5.17;;;17.70;90.70;;;;;;5095566;28;20274;-50
2022/04/19 11:01:00;;;;;;;6.43;5.13;;;17.70;91.60;;;;;;5095419;28;20179;-48
2022/04/19 11:03:25;;;;;;;5.57;4.70;;;17.70;92.50;;;;;;5095752;28;20159;-49
2022/04/19 11:05:56;;;;;;;8.03;5.50;;;17.80;92.50;;;;;;5095564;28;20232;-49
2022/04/19 11:08:25;;;;;;;8.10;5.73;;;17.90;91.40;;;;;;5095296;28;20652;-49
2022/04/19 11:10:52;;;;;;;8.57;5.40;;;18.00;93.00;;;;;;5095457;28;20211;-49
2022/04/19 11:13:19;;;;;;;9.13;5.10;;;18.20;91.20;;;;;;5095237;28;20580;-49
2022/04/19 11:15:57;;;;;;;7.03;5.17;;;18.30;92.30;;;;;;5095049;28;20170;-48
2022/04/19 11:18:27;;;;;;;7.67;5.20;;;18.30;91.00;;;;;;5095340;28;20253;-50
2022/04/19 11:20:55;;;;;;;7.73;5.13;;;18.30;92.00;;;;;;5095224;28;20264;-51
2022/04/19 11:23:24;;;;;;;9.40;5.60;;;18.30;91.70;;;;;;5094861;28;20644;-51
2022/04/19 11:25:51;;;;;;;8.23;5.13;;;18.30;90.70;;;;;;5095154;28;20183;-49
2022/04/19 11:28:30;;;;;;;11.73;5.03;;;18.50;91.30;;;;;;5094843;28;20656;-51
2022/04/19 11:30:55;;;;;;;7.07;5.27;;;18.60;91.50;;;;;;5094716;28;20316;-51
2022/04/19 11:33:35;;;;;;;5.63;4.97;;;18.60;90.40;;;;;;5094805;28;20206;-50
2022/04/19 11:36:02;;;;;;;7.03;4.37;;;18.60;90.00;;;;;;5095755;28;20202;-50
2022/04/19 11:38:32;;;;;;;6.20;4.40;;;18.70;90.40;;;;;;5094674;28;20256;-50
2022/04/19 11:46:45;;;;;;;5.50;3.80;;;18.40;89.20;;;;;;5094827;28;20573;-51
2022/04/19 11:49:19;;;;;;;4.90;3.83;;;18.50;90.00;;;;;;5094790;28;20166;-49
2022/04/19 11:51:54;;;;;;;5.17;3.80;;;18.70;90.00;;;;;;5094693;28;20239;-50
2022/04/19 11:54:27;;;;;;;8.87;4.00;;;18.80;87.30;;;;;;5094626;28;20155;-50
2022/04/19 11:57:04;;;;;;;5.60;3.90;;;18.90;89.40;;;;;;5094622;28;20290;-49
2022/04/19 11:59:41;;;;;;;5.47;4.03;;;19.00;90.40;;;;;;5094607;28;20163;-49
2022/04/19 12:02:18;;;;;;;7.13;3.70;;;19.30;87.70;;;;;;5094199;28;20182;-49
2022/04/19 12:04:55;;;;;;;5.50;4.03;;;19.40;88.40;;;;;;5094498;28;20170;-48
2022/04/19 12:07:21;;;;;;;6.50;4.10;;;19.40;87.20;;;;;;5094117;28;20214;-49
2022/04/19 12:09:48;;;;;;;4.80;3.83;;;19.40;87.20;;;;;;5093846;28;20213;-50
2022/04/19 12:12:14;;;;;;;7.20;3.93;;;19.30;88.20;;;;;;5093837;28;20211;-50
2022/04/19 12:14:40;;;;;;;5.67;4.23;;;19.30;86.10;;;;;;5094069;28;20175;-50
2022/04/19 12:17:07;;;;;;;4.30;3.50;;;19.20;86.70;;;;;;5093953;28;20191;-50
2022/04/19 12:19:40;;;;;;;9.27;4.80;;;19.30;88.70;;;;;;5092820;28;20181;-49
2022/04/19 12:22:23;;;;;;;8.77;3.97;;;19.30;86.40;;;;;;5094757;28;20220;-49
2022/04/19 12:24:53;;;;;;;7.67;3.80;;;19.40;87.60;;;;;;5092549;28;20582;-49
2022/04/19 12:27:30;;;;;;;6.47;3.73;;;19.40;86.90;;;;;;5093960;28;20664;-48
2022/04/19 12:30:17;;;;;;;5.70;3.77;;;19.40;86.70;;;;;;5093669;28;20191;-48
2022/04/19 12:32:56;;;;;;;6.07;3.77;;;19.40;91.10;;;;;;5093892;28;20174;-49
2022/04/19 12:35:29;;;;;;;3.70;3.20;;;19.50;88.20;;;;;;5075649;28;20177;-50
2022/04/19 12:38:16;;;;;;;3.20;2.90;;;19.60;90.60;;;;;;5093555;28;20195;-49
2022/04/19 12:40:45;;;;;;;5.63;3.83;;;19.60;89.50;;;;;;5093923;28;20200;-50
2022/04/19 12:43:14;;;;;;;8.40;3.07;;;19.70;85.90;;;;;;5093605;28;20182;-49
2022/04/19 12:45:41;;;;;;;5.00;3.50;;;19.90;91.00;;;;;;5093515;28;20182;-49
2022/04/19 12:48:20;;;;;;;5.73;3.73;;;19.90;86.70;;;;;;5092292;28;20179;-49
2022/04/19 12:50:45;;;;;;;4.83;3.47;;;19.90;84.80;;;;;;5093739;28;20255;-50
2022/04/19 12:53:21;;;;;;;7.10;3.20;;;19.80;89.30;;;;;;5092215;28;20699;-50
2022/04/19 12:55:47;;;;;;;6.23;3.17;;;19.80;88.10;;;;;;5093693;28;20236;-50
2022/04/19 12:58:12;;;;;;;3.57;2.83;;;19.70;88.20;;;;;;5093488;28;20167;-50
2022/04/19 13:00:38;;;;;;;5.80;3.47;;;19.70;89.80;;;;;;5093304;28;20761;-50
2022/04/19 13:03:04;;;;;;;3.00;2.70;;;19.60;86.40;;;;;;5093104;28;20213;-49
2022/04/19 13:13:42;;;;;;;4.43;3.70;;;19.50;84.80;;;;;;5093657;28;20583;-48
2022/04/19 13:16:08;;;;;;;5.83;3.20;;;19.60;86.40;;;;;;5093222;28;20195;-49
2022/04/19 13:18:34;;;;;;;6.10;3.23;;;19.60;85.20;;;;;;5091768;28;20603;-49
2022/04/19 13:21:00;;;;;;;3.27;2.57;;;19.50;85.70;;;;;;5093274;28;20271;-49
2022/04/19 13:23:25;;;;;;;3.00;2.70;;;19.60;90.00;;;;;;5097084;28;20185;-50
2022/04/19 13:25:53;;;;;;;5.80;3.07;;;19.80;84.50;;;;;;5097213;28;20183;-47
2022/04/19 13:28:18;;;;;;;5.53;3.40;;;19.80;86.10;;;;;;5097182;28;20175;-49
2022/04/19 13:30:44;;;;;;;3.37;2.90;;;19.90;86.70;;;;;;5097397;28;20202;-50
2022/04/19 13:33:10;;;;;;;3.87;2.87;;;19.90;86.70;;;;;;5097178;28;20179;-48
2022/04/19 13:35:35;;;;;;;7.53;3.30;;;19.90;85.60;;;;;;5097013;28;20315;-48
2022/04/19 13:40:45;;;;;;;5.60;3.33;;;19.80;82.10;;;;;;5097115;28;20215;-51